Cullowhee, North Carolina
Current Conditions -  °F | °C
As of 7:54 PM on Thursday 18 Dec 2014 (Local Time) from KAVL Reporting Station
Overcast Overcast  
Wind Chill: 35°   Ceiling: 5000
Heat Index: 42°   Visibility: 10mi
Dew Point: 24°   Wind: 13mph
Humidity: 49%   Direction: 340°NNW
Pressure: 30.1"   Gusts: NA
Location:  35.31°N, 83.18°W
Report Text: KAVL 190054Z 34011KT 10SM OVC050 06/M04 A3010 RMK AO2 SLP198 T00561044
Loading
Personal Weather Stations






























Interactive Weather Map New forecast layout! Learn more

10-Day Weather Forecast

Advertisements
Track Severe Weather on mobile